Time;durP1;ratioP1;P1;durP2;ratioP2;P2;SDS_P1;SDS_P2;PMS_P1;PMS_P2;Temp;Humidity;BMP_temperature;BMP_pressure;BME280_temperature;BME280_humidity;BME280_pressure;Samples;Min_cycle;Max_cycle;Signal;HPM_P1;HPM_P2
2024/01/02 00:01:47;;;;;;;19.83;12.60;;;;;;;4.26;100.00;100279.97;12512974;23;20341;-71
2024/01/02 00:06:43;;;;;;;21.58;12.05;;;;;;;4.21;100.00;100271.91;12513365;23;20040;-70
2024/01/02 00:11:40;;;;;;;16.33;12.27;;;;;;;4.19;100.00;100268.66;12506180;23;20025;-70
2024/01/02 00:16:36;;;;;;;23.83;12.93;;;;;;;4.13;100.00;100256.28;12513391;23;20033;-71
2024/01/02 00:21:38;;;;;;;20.45;12.68;;;;;;;4.05;100.00;100246.88;12513106;23;20045;-70
2024/01/02 00:26:35;;;;;;;29.25;15.25;;;;;;;4.06;100.00;100242.28;12494475;23;20480;-70
2024/01/02 00:31:32;;;;;;;24.48;13.50;;;;;;;4.02;100.00;100235.84;12452600;23;20093;-71
2024/01/02 00:36:28;;;;;;;21.33;13.70;;;;;;;3.98;100.00;100231.00;12447456;23;20029;-71
2024/01/02 00:41:24;;;;;;;21.42;14.63;;;;;;;3.95;100.00;100215.34;12451961;23;20101;-71
2024/01/02 00:46:21;;;;;;;24.85;14.43;;;;;;;3.90;100.00;100212.69;12427427;23;20637;-71
2024/01/02 00:51:17;;;;;;;29.23;14.80;;;;;;;3.87;100.00;100213.25;12449826;23;20022;-71
2024/01/02 00:56:14;;;;;;;23.00;15.07;;;;;;;3.86;100.00;100206.22;12453280;23;20472;-71
2024/01/02 01:01:11;;;;;;;19.75;13.07;;;;;;;3.88;100.00;100204.06;12456231;23;20057;-71
2024/01/02 01:06:08;;;;;;;21.15;15.50;;;;;;;3.89;100.00;100199.44;12456856;23;20033;-71
2024/01/02 01:11:05;;;;;;;21.77;14.20;;;;;;;3.86;100.00;100195.41;12449515;23;20026;-71
2024/01/02 01:16:01;;;;;;;26.60;14.23;;;;;;;3.86;100.00;100190.00;12454110;23;20029;-70
2024/01/02 01:20:58;;;;;;;29.50;15.20;;;;;;;3.81;100.00;100192.75;12455710;23;20047;-70
2024/01/02 01:25:54;;;;;;;20.73;13.18;;;;;;;3.70;100.00;100175.03;12510608;23;20411;-70
2024/01/02 01:30:51;;;;;;;20.77;13.25;;;;;;;3.62;100.00;100179.16;12504760;23;20139;-72
2024/01/02 01:35:48;;;;;;;21.20;13.77;;;;;;;3.57;100.00;100171.91;12456359;23;20041;-72
2024/01/02 01:40:56;;;;;;;20.75;13.10;;;;;;;3.50;100.00;100171.41;12453299;23;20566;-71
2024/01/02 01:45:53;;;;;;;18.85;14.32;;;;;;;3.46;100.00;100164.97;12506283;23;20124;-71
2024/01/02 01:50:49;;;;;;;28.95;14.13;;;;;;;3.38;100.00;100160.16;12509208;23;20036;-71
2024/01/02 01:55:46;;;;;;;21.40;13.93;;;;;;;3.40;100.00;100144.47;12516454;23;20025;-70
2024/01/02 02:01:17;;;;;;;16.55;13.35;;;;;;;3.40;100.00;100130.16;12493829;23;20036;-70
2024/01/02 02:06:37;;;;;;;15.73;12.80;;;;;;;3.36;100.00;100113.69;12491085;23;20030;-70
2024/01/02 02:11:35;;;;;;;20.38;14.13;;;;;;;3.33;100.00;100111.56;12428982;23;20036;-71
2024/01/02 02:16:32;;;;;;;18.65;13.60;;;;;;;3.30;100.00;100112.16;12449620;23;20404;-71
2024/01/02 02:21:30;;;;;;;20.63;14.70;;;;;;;3.28;100.00;100103.50;12454577;23;20502;-70
2024/01/02 02:26:26;;;;;;;20.27;13.55;;;;;;;3.26;100.00;100100.28;12454996;23;20027;-69
2024/01/02 02:31:22;;;;;;;21.50;13.82;;;;;;;3.24;100.00;100080.84;12454293;23;20380;-70
2024/01/02 02:36:19;;;;;;;17.52;13.00;;;;;;;3.24;100.00;100065.44;12455162;23;20109;-70
2024/01/02 02:41:15;;;;;;;16.75;13.43;;;;;;;3.20;100.00;100063.59;12453933;23;20030;-69
2024/01/02 02:46:12;;;;;;;22.65;13.73;;;;;;;3.19;100.00;100045.78;12454920;23;20375;-69
2024/01/02 02:51:10;;;;;;;17.67;13.68;;;;;;;3.16;100.00;100031.75;12453520;23;20026;-69
2024/01/02 02:56:06;;;;;;;14.73;13.15;;;;;;;3.15;100.00;100018.50;12453005;23;20029;-69
2024/01/02 03:01:04;;;;;;;15.65;13.80;;;;;;;3.17;100.00;100000.94;12448884;23;20180;-70
2024/01/02 03:06:01;;;;;;;26.83;14.63;;;;;;;3.13;100.00;99991.81;12449361;23;20036;-71
2024/01/02 03:10:59;;;;;;;27.08;14.20;;;;;;;3.13;100.00;99989.09;12450460;23;20050;-69
2024/01/02 03:15:55;;;;;;;18.08;14.23;;;;;;;3.11;100.00;99985.88;12447340;23;20030;-70
2024/01/02 03:20:52;;;;;;;19.20;13.25;;;;;;;3.12;100.00;99976.69;12451799;23;20076;-70
2024/01/02 03:25:48;;;;;;;17.25;13.77;;;;;;;3.04;100.00;99962.97;12452793;23;20519;-70
2024/01/02 03:30:45;;;;;;;23.23;14.57;;;;;;;3.06;100.00;99956.19;12453342;23;20022;-70
2024/01/02 03:35:41;;;;;;;20.60;14.73;;;;;;;3.05;100.00;99943.00;12453102;23;20034;-70
2024/01/02 03:40:38;;;;;;;18.60;16.13;;;;;;;3.08;100.00;99927.00;12449649;23;20096;-70
2024/01/02 03:45:34;;;;;;;22.60;13.85;;;;;;;3.09;100.00;99923.25;12452275;23;20109;-69
2024/01/02 03:50:31;;;;;;;16.05;13.88;;;;;;;3.09;100.00;99912.44;12452361;23;20026;-70
2024/01/02 03:55:28;;;;;;;23.40;14.40;;;;;;;3.11;100.00;99909.44;12454605;23;20453;-70
2024/01/02 04:00:24;;;;;;;22.00;15.13;;;;;;;3.08;100.00;99897.31;12453247;23;20392;-70
2024/01/02 04:05:22;;;;;;;16.60;14.80;;;;;;;3.10;100.00;99881.63;12450734;23;22643;-70
2024/01/02 04:10:18;;;;;;;16.17;14.47;;;;;;;3.11;100.00;99869.72;12452355;23;20353;-70
2024/01/02 04:15:15;;;;;;;23.27;15.30;;;;;;;3.05;100.00;99868.19;12452094;23;20478;-70
2024/01/02 04:20:12;;;;;;;20.02;15.98;;;;;;;3.12;100.00;99852.44;12414638;23;20033;-69
2024/01/02 04:25:09;;;;;;;19.20;15.27;;;;;;;3.15;100.00;99845.63;12450204;23;20475;-69
2024/01/02 04:30:06;;;;;;;24.65;15.52;;;;;;;3.11;100.00;99829.22;12451232;23;20026;-71
2024/01/02 04:35:04;;;;;;;19.20;14.90;;;;;;;3.18;100.00;99818.06;12454064;23;20352;-73
2024/01/02 04:40:01;;;;;;;25.08;14.90;;;;;;;3.25;100.00;99806.88;12454326;23;20399;-73
2024/01/02 04:44:58;;;;;;;23.75;15.35;;;;;;;3.34;100.00;99797.03;12457466;23;20089;-74
2024/01/02 04:49:55;;;;;;;21.48;15.27;;;;;;;3.40;100.00;99786.97;12452776;23;20064;-71
2024/01/02 04:54:52;;;;;;;20.75;15.35;;;;;;;3.42;100.00;99777.47;12454440;23;20060;-71
2024/01/02 04:59:48;;;;;;;21.70;15.57;;;;;;;3.46;100.00;99783.91;12450641;23;20096;-72
2024/01/02 05:04:45;;;;;;;27.15;15.18;;;;;;;3.50;100.00;99776.78;12424459;23;20478;-72
2024/01/02 05:09:41;;;;;;;20.88;15.52;;;;;;;3.56;100.00;99775.63;12426543;23;20033;-72
2024/01/02 05:14:38;;;;;;;18.42;14.48;;;;;;;3.59;100.00;99776.94;12452448;23;20026;-72
2024/01/02 05:19:35;;;;;;;16.58;14.88;;;;;;;3.71;100.00;99760.25;12451829;23;20036;-71
2024/01/02 05:24:32;;;;;;;16.67;15.00;;;;;;;3.77;100.00;99753.66;12453052;23;20030;-72
2024/01/02 05:29:29;;;;;;;17.05;14.63;;;;;;;3.84;100.00;99748.69;12450446;23;20476;-71
2024/01/02 05:34:28;;;;;;;15.73;14.10;;;;;;;3.83;100.00;99744.38;12447389;23;20137;-72
2024/01/02 05:39:25;;;;;;;18.55;13.75;;;;;;;3.77;100.00;99732.03;12444171;23;20030;-72
2024/01/02 05:44:21;;;;;;;23.40;14.88;;;;;;;3.79;100.00;99737.97;12448233;23;20030;-72
2024/01/02 05:49:18;;;;;;;16.30;13.70;;;;;;;3.84;100.00;99737.06;12425846;23;20030;-72
2024/01/02 05:55:00;;;;;;;15.90;14.07;;;;;;;3.86;100.00;99724.84;12544673;23;20479;-72
2024/01/02 06:00:02;;;;;;;16.55;13.55;;;;;;;3.86;100.00;99727.56;12574223;23;20037;-72
2024/01/02 06:04:58;;;;;;;;;;;;;;;3.89;100.00;99720.75;12574959;23;20358;-72
2024/01/02 06:09:55;;;;;;;16.80;13.68;;;;;;;3.88;100.00;99711.84;12573547;23;20503;-73
2024/01/02 06:14:52;;;;;;;15.77;14.30;;;;;;;3.91;100.00;99696.91;12572257;23;20021;-73
2024/01/02 06:19:52;;;;;;;16.45;13.77;;;;;;;3.89;100.00;99675.56;12572761;23;20494;-72
2024/01/02 06:24:49;;;;;;;19.73;13.55;;;;;;;3.90;100.00;99660.97;12573378;23;20028;-73
2024/01/02 06:29:51;;;;;;;18.90;13.98;;;;;;;3.93;100.00;99644.13;12573532;23;20025;-74
2024/01/02 06:34:49;;;;;;;15.07;13.52;;;;;;;3.96;100.00;99627.28;12574414;23;20100;-74
2024/01/02 06:39:46;;;;;;;18.98;14.50;;;;;;;3.96;100.00;99627.28;12572635;23;20032;-74
2024/01/02 06:44:43;;;;;;;20.35;13.70;;;;;;;3.97;100.00;99622.72;12571953;23;20423;-74
2024/01/02 06:49:39;;;;;;;16.17;13.65;;;;;;;4.02;100.00;99602.88;12576980;23;20029;-74
2024/01/02 06:54:37;;;;;;;15.20;13.57;;;;;;;4.02;100.00;99602.88;12569589;23;20093;-74
2024/01/02 06:59:33;;;;;;;20.98;13.73;;;;;;;4.04;100.00;99595.22;12559997;23;20025;-74
2024/01/02 07:04:30;;;;;;;25.38;14.30;;;;;;;4.03;100.00;99582.81;12575158;23;20021;-74
2024/01/02 07:09:26;;;;;;;18.45;13.75;;;;;;;4.06;100.00;99577.63;12572677;23;20025;-75
2024/01/02 07:14:23;;;;;;;19.70;14.15;;;;;;;4.08;100.00;99572.69;12571521;23;20025;-75
2024/01/02 07:19:19;;;;;;;26.58;12.93;;;;;;;4.07;100.00;99571.09;12574974;23;20029;-75
2024/01/02 07:24:22;;;;;;;16.38;12.43;;;;;;;4.10;100.00;99548.06;12575507;23;20060;-74
2024/01/02 07:29:18;;;;;;;16.08;13.05;;;;;;;4.12;100.00;99543.16;12574190;23;20121;-74
2024/01/02 07:48:49;;;;;;;16.98;11.98;;;;;;;4.08;100.00;99509.69;11921401;24;20113;-76
2024/01/02 07:53:51;;;;;;;15.30;12.35;;;;;;;4.07;100.00;99489.16;12015125;24;20028;-75
2024/01/02 07:58:48;;;;;;;12.70;11.05;;;;;;;4.08;100.00;99471.81;12256712;23;20659;-75
2024/01/02 08:03:44;;;;;;;15.25;11.45;;;;;;;3.98;100.00;99476.34;12268231;23;20051;-75
2024/01/02 08:08:41;;;;;;;17.15;12.35;;;;;;;4.02;100.00;99456.81;12269654;23;20035;-74
2024/01/02 08:13:40;;;;;;;15.50;10.60;;;;;;;4.03;100.00;99453.00;12268241;23;20051;-76
2024/01/02 08:18:41;;;;;;;12.52;8.88;;;;;;;3.98;100.00;99438.47;12269537;23;20023;-76
2024/01/02 08:23:38;;;;;;;16.17;9.73;;;;;;;4.00;100.00;99428.16;12368209;23;20033;-75
2024/01/02 08:28:36;;;;;;;17.15;10.30;;;;;;;4.04;100.00;99422.13;12452300;23;20065;-74
2024/01/02 08:33:32;;;;;;;17.33;9.27;;;;;;;4.05;100.00;99407.50;12450649;23;20051;-74
2024/01/02 08:38:32;;;;;;;10.80;9.27;;;;;;;4.12;100.00;99397.06;12424374;23;20089;-76
2024/01/02 08:48:40;;;;;;;16.23;9.43;;;;;;;4.06;100.00;99382.06;12546833;23;20451;-74
2024/01/02 08:53:37;;;;;;;9.75;8.60;;;;;;;4.17;100.00;99378.00;12572345;23;20025;-75
2024/01/02 08:58:34;;;;;;;10.30;8.45;;;;;;;4.20;100.00;99370.09;12572034;23;20052;-74
2024/01/02 09:14:59;;;;;;;12.13;9.60;;;;;;;4.13;100.00;99322.91;12508102;23;20041;-75
2024/01/02 09:19:58;;;;;;;11.32;9.85;;;;;;;4.15;100.00;99320.69;12484039;23;20041;-76
2024/01/02 09:24:58;;;;;;;14.63;9.27;;;;;;;4.13;100.00;99318.31;12514586;23;20452;-74
2024/01/02 09:29:55;;;;;;;13.65;9.77;;;;;;;4.17;100.00;99307.66;12514215;23;20028;-76
2024/01/02 09:34:52;;;;;;;12.05;9.52;;;;;;;4.19;100.00;99305.44;12514275;23;20559;-74
2024/01/02 09:39:53;;;;;;;11.20;9.90;;;;;;;4.09;100.00;99284.88;12487595;23;20667;-75
2024/01/02 09:45:07;;;;;;;13.38;10.70;;;;;;;4.25;100.00;99282.56;12512455;23;20021;-75
2024/01/02 09:50:15;;;;;;;11.13;9.70;;;;;;;4.26;100.00;99278.75;12513761;23;20021;-74
2024/01/02 09:55:19;;;;;;;10.90;9.80;;;;;;;4.24;100.00;99270.13;12514183;23;20531;-75
2024/01/02 10:00:31;;;;;;;10.57;9.50;;;;;;;4.22;100.00;99239.88;12511811;23;20056;-73
2024/01/02 10:05:43;;;;;;;10.10;9.13;;;;;;;4.21;100.00;99251.84;12488821;23;20028;-74
2024/01/02 10:10:55;;;;;;;9.85;9.05;;;;;;;4.29;100.00;99234.03;12511171;23;20363;-74
2024/01/02 10:16:09;;;;;;;10.98;10.02;;;;;;;4.32;100.00;99233.44;12506079;23;20240;-74
2024/01/02 10:21:24;;;;;;;10.65;9.55;;;;;;;4.25;100.00;99228.47;12517719;23;20036;-75
2024/01/02 10:26:23;;;;;;;11.10;9.90;;;;;;;4.40;100.00;99230.75;12598222;23;20450;-76
2024/01/02 10:31:31;;;;;;;10.57;9.73;;;;;;;4.43;100.00;99213.91;12577826;23;20025;-75
2024/01/02 10:36:32;;;;;;;12.52;11.63;;;;;;;4.40;100.00;99200.97;12600917;23;20083;-75
2024/01/02 10:41:48;;;;;;;12.43;11.40;;;;;;;4.53;100.00;99198.47;12609470;23;20462;-75
2024/01/02 10:46:57;;;;;;;12.77;11.18;;;;;;;4.52;100.00;99210.41;12610601;23;20458;-76
2024/01/02 10:52:20;;;;;;;13.55;11.93;;;;;;;4.53;100.00;99182.25;12608002;23;20055;-76
2024/01/02 10:57:52;;;;;;;12.70;11.60;;;;;;;4.55;100.00;99180.81;12609847;23;20034;-75
2024/01/02 11:02:59;;;;;;;11.95;11.05;;;;;;;4.56;100.00;99176.19;12607494;23;20087;-75
2024/01/02 11:08:18;;;;;;;12.60;11.43;;;;;;;4.53;100.00;99166.00;12616399;23;20315;-75
2024/01/02 11:13:18;;;;;;;12.30;11.30;;;;;;;4.55;100.00;99150.22;12640980;23;20021;-74
2024/01/02 11:18:18;;;;;;;11.65;10.70;;;;;;;4.53;100.00;99147.06;12635592;23;20092;-74
2024/01/02 11:23:23;;;;;;;11.50;10.57;;;;;;;4.52;100.00;99145.44;12614323;23;20027;-76
2024/01/02 11:28:25;;;;;;;11.52;10.68;;;;;;;4.60;100.00;99158.22;12602747;23;20028;-76
2024/01/02 11:33:31;;;;;;;11.82;10.70;;;;;;;4.65;100.00;99152.63;12607749;23;20029;-76
2024/01/02 11:38:36;;;;;;;11.80;10.80;;;;;;;4.63;100.00;99141.31;12608433;23;20051;-77
2024/01/02 11:44:13;;;;;;;11.50;10.70;;;;;;;4.75;100.00;99130.66;12607908;23;20032;-76
2024/01/02 11:49:16;;;;;;;10.65;9.85;;;;;;;4.76;100.00;99124.13;12607261;23;20033;-77
2024/01/02 11:54:19;;;;;;;11.02;10.13;;;;;;;4.80;100.00;99103.44;12607781;23;20025;-77
2024/01/02 11:59:38;;;;;;;10.73;9.82;;;;;;;4.77;100.00;99098.66;12608086;23;20024;-76
2024/01/02 12:04:51;;;;;;;10.82;10.02;;;;;;;4.85;100.00;99083.53;12601215;23;20378;-75
2024/01/02 12:10:36;;;;;;;10.93;10.13;;;;;;;4.88;100.00;99076.69;12616703;23;20028;-75
2024/01/02 12:15:45;;;;;;;10.57;9.88;;;;;;;4.91;100.00;99065.19;12583949;23;20020;-75
2024/01/02 12:21:09;;;;;;;10.20;9.55;;;;;;;4.88;100.00;99063.13;12623098;23;20315;-76
2024/01/02 12:26:13;;;;;;;11.50;10.57;;;;;;;4.87;100.00;99059.59;12616712;23;20107;-76
2024/01/02 12:31:34;;;;;;;9.45;8.85;;;;;;;4.91;100.00;99038.13;12615988;23;20024;-77
2024/01/02 12:36:42;;;;;;;9.82;9.20;;;;;;;4.95;100.00;99033.66;12617138;23;20502;-75
2024/01/02 12:41:47;;;;;;;10.43;9.60;;;;;;;4.78;100.00;99035.28;12618838;23;20505;-76
2024/01/02 12:47:00;;;;;;;9.98;9.27;;;;;;;4.91;100.00;99038.13;12616671;23;20103;-75
2024/01/02 12:52:12;;;;;;;11.07;10.18;;;;;;;4.88;100.00;99033.34;12598322;23;20490;-75
2024/01/02 12:57:14;;;;;;;9.80;9.07;;;;;;;4.81;100.00;99023.78;12643124;23;20029;-74
2024/01/02 13:02:34;;;;;;;10.43;9.60;;;;;;;4.84;100.00;99017.72;12602883;23;20017;-75
2024/01/02 13:07:44;;;;;;;9.80;9.15;;;;;;;4.89;100.00;99013.25;12643836;23;20131;-76
2024/01/02 13:12:44;;;;;;;9.73;9.05;;;;;;;4.87;100.00;99010.06;12614838;23;20048;-75
2024/01/02 13:17:42;;;;;;;9.13;8.52;;;;;;;4.76;100.00;98999.59;12608163;23;20036;-75
2024/01/02 13:22:39;;;;;;;9.85;9.15;;;;;;;4.80;100.00;98995.13;12612075;23;20028;-76
2024/01/02 13:27:36;;;;;;;9.40;8.80;;;;;;;4.89;100.00;98991.59;12612406;23;20044;-76
2024/01/02 13:32:35;;;;;;;9.65;9.05;;;;;;;4.85;100.00;98989.53;12610326;23;20059;-76
2024/01/02 13:37:37;;;;;;;9.40;8.80;;;;;;;4.91;100.00;98983.94;12612468;23;20103;-76
2024/01/02 13:42:36;;;;;;;9.77;9.18;;;;;;;4.90;100.00;98991.28;12605911;23;20023;-76
2024/01/02 13:47:38;;;;;;;10.02;9.32;;;;;;;4.99;100.00;98980.41;12638158;23;20376;-77
2024/01/02 13:52:44;;;;;;;10.60;9.90;;;;;;;4.97;100.00;98971.84;12612897;23;20017;-76
2024/01/02 13:57:55;;;;;;;10.70;10.00;;;;;;;5.01;100.00;98967.34;12608799;23;20024;-74
2024/01/02 14:03:07;;;;;;;11.50;10.27;;;;;;;5.02;100.00;98963.53;12596569;23;20352;-75
2024/01/02 14:08:09;;;;;;;10.80;10.10;;;;;;;5.05;100.00;98960.16;12611594;23;20032;-76
2024/01/02 14:13:31;;;;;;;11.20;10.50;;;;;;;5.00;100.00;98953.00;12608646;23;20108;-75
2024/01/02 14:18:32;;;;;;;11.07;10.20;;;;;;;5.02;100.00;98939.16;12609770;23;20808;-74
2024/01/02 14:23:50;;;;;;;10.90;10.20;;;;;;;5.02;100.00;98947.28;12611921;23;20438;-75
2024/01/02 14:29:05;;;;;;;11.02;10.32;;;;;;;4.98;100.00;98940.91;12605476;23;20566;-75
2024/01/02 14:34:15;;;;;;;11.70;10.90;;;;;;;4.92;100.00;98901.56;12609554;23;20035;-76
2024/01/02 14:39:37;;;;;;;10.65;9.95;;;;;;;4.91;100.00;98886.44;12609502;23;20025;-76
2024/01/02 14:44:50;;;;;;;10.23;9.38;;;;;;;4.96;100.00;98897.88;12610506;23;20324;-74
2024/01/02 14:50:00;;;;;;;11.35;10.65;;;;;;;4.99;100.00;98888.31;12634999;23;20028;-73
2024/01/02 14:55:11;;;;;;;11.73;10.93;;;;;;;4.94;100.00;98878.47;12604756;23;20035;-73
2024/01/02 15:00:11;;;;;;;10.85;10.10;;;;;;;4.97;100.00;98874.31;12608435;23;20032;-72
2024/01/02 15:05:24;;;;;;;10.75;10.05;;;;;;;4.94;100.00;98874.97;12608351;23;20513;-76
2024/01/02 15:10:28;;;;;;;10.82;10.13;;;;;;;4.88;100.00;98849.19;12630360;23;20459;-74
2024/01/02 15:15:59;;;;;;;11.55;10.75;;;;;;;5.01;100.00;98837.31;12608385;23;20027;-75
2024/01/02 15:21:17;;;;;;;10.95;10.25;;;;;;;4.99;100.00;98834.97;12609117;23;20032;-74
2024/01/02 15:26:37;;;;;;;11.63;10.82;;;;;;;4.97;100.00;98831.00;12610648;23;20458;-74
2024/01/02 15:32:01;;;;;;;11.52;10.73;;;;;;;5.03;100.00;98835.09;12598227;23;20056;-76
2024/01/02 15:37:13;;;;;;;11.32;10.52;;;;;;;5.05;100.00;98822.00;12592900;23;20110;-77
2024/01/02 15:42:30;;;;;;;11.80;11.00;;;;;;;5.01;100.00;98821.06;12609252;23;20030;-76
2024/01/02 15:47:53;;;;;;;11.77;10.75;;;;;;;5.02;100.00;98819.97;12604368;23;20032;-76
2024/01/02 15:52:57;;;;;;;12.20;11.35;;;;;;;5.08;100.00;98813.22;12608689;23;20024;-77
2024/01/02 15:57:55;;;;;;;11.70;10.90;;;;;;;5.07;100.00;98808.94;12609978;23;20036;-77
2024/01/02 16:03:11;;;;;;;13.25;12.05;;;;;;;5.03;100.00;98803.38;12604114;23;20059;-76
2024/01/02 16:08:34;;;;;;;12.27;11.38;;;;;;;5.03;100.00;98792.53;12609674;23;20035;-78
2024/01/02 16:13:31;;;;;;;12.73;11.75;;;;;;;5.02;100.00;98790.97;12574796;23;20024;-77
2024/01/02 16:19:05;;;;;;;12.85;11.93;;;;;;;5.11;100.00;98784.72;12608286;23;20120;-78
2024/01/02 16:24:21;;;;;;;13.60;12.50;;;;;;;5.06;100.00;98774.84;12608459;23;20031;-77
2024/01/02 16:29:43;;;;;;;13.65;12.52;;;;;;;5.08;100.00;98767.16;12608054;23;20079;-77
2024/01/02 16:34:39;;;;;;;12.48;11.15;;;;;;;5.08;100.00;98761.75;12612259;23;20082;-79
2024/01/02 16:39:37;;;;;;;13.63;12.45;;;;;;;5.02;100.00;98731.38;12607403;23;20024;-77
2024/01/02 16:44:34;;;;;;;13.13;12.02;;;;;;;5.09;100.00;98719.22;12610453;23;20025;-77
2024/01/02 16:49:42;;;;;;;13.18;11.88;;;;;;;5.07;100.00;98701.38;12611978;23;20390;-77
2024/01/02 16:54:42;;;;;;;12.98;11.88;;;;;;;5.10;100.00;98699.13;12606152;23;20021;-77
2024/01/02 16:59:39;;;;;;;13.13;11.98;;;;;;;5.10;100.00;98677.47;12609928;23;20031;-77
2024/01/02 17:04:36;;;;;;;12.77;11.70;;;;;;;5.12;100.00;98676.00;12612421;23;20075;-77
2024/01/02 17:09:33;;;;;;;13.38;12.27;;;;;;;5.18;100.00;98653.00;12611181;23;20075;-77
2024/01/02 17:14:31;;;;;;;13.90;12.70;;;;;;;5.26;100.00;98654.84;12606539;23;20024;-77
2024/01/02 17:19:29;;;;;;;13.35;12.25;;;;;;;5.17;100.00;98646.00;12607235;23;20115;-77
2024/01/02 17:24:26;;;;;;;13.60;12.30;;;;;;;5.23;100.00;98628.41;12608156;23;20079;-77
2024/01/02 17:29:23;;;;;;;13.38;12.27;;;;;;;5.28;100.00;98628.22;12633362;23;20031;-77
2024/01/02 17:34:25;;;;;;;11.75;10.82;;;;;;;5.28;100.00;98603.81;12612574;23;20017;-77
2024/01/02 17:39:31;;;;;;;12.65;11.57;;;;;;;5.23;100.00;98595.91;12608722;23;20029;-75
2024/01/02 17:44:28;;;;;;;13.13;12.10;;;;;;;5.26;100.00;98584.38;12636504;23;20466;-76
2024/01/02 17:49:27;;;;;;;11.95;10.95;;;;;;;5.22;100.00;98578.06;12609984;23;20028;-76
2024/01/02 17:54:28;;;;;;;11.57;10.68;;;;;;;5.25;100.00;98561.16;12608734;23;20044;-75
2024/01/02 17:59:35;;;;;;;12.18;11.18;;;;;;;5.34;100.00;98555.63;12611275;23;20036;-75
2024/01/02 18:04:50;;;;;;;11.88;10.95;;;;;;;5.33;100.00;98545.91;12611597;23;20434;-75
2024/01/02 18:10:03;;;;;;;12.10;11.10;;;;;;;5.41;100.00;98530.69;12611039;23;20029;-76
2024/01/02 18:15:06;;;;;;;11.83;10.87;;;;;;;5.41;100.00;98519.88;12609529;23;20017;-76
2024/01/02 18:20:11;;;;;;;12.07;11.02;;;;;;;5.42;100.00;98503.25;12608471;23;20065;-74
2024/01/02 18:25:37;;;;;;;11.85;10.75;;;;;;;5.42;100.00;98494.34;12533922;23;20111;-74
2024/01/02 18:30:54;;;;;;;10.73;9.85;;;;;;;5.34;100.00;98482.47;12543735;23;20036;-75
2024/01/02 18:36:01;;;;;;;11.10;10.30;;;;;;;5.41;100.00;98466.44;12610667;23;20075;-76
2024/01/02 18:41:18;;;;;;;11.00;10.20;;;;;;;5.47;100.00;98458.88;12607244;23;20031;-74
2024/01/02 18:46:21;;;;;;;10.35;9.55;;;;;;;5.43;100.00;98447.13;12609289;23;20107;-76
2024/01/02 18:51:46;;;;;;;10.88;9.98;;;;;;;5.43;100.00;98430.84;12608132;23;20055;-74
2024/01/02 18:56:43;;;;;;;10.80;9.90;;;;;;;5.54;100.00;98423.06;12607006;23;20035;-75
2024/01/02 19:02:09;;;;;;;11.02;10.18;;;;;;;5.57;100.00;98419.66;12608133;23;20028;-75
2024/01/02 19:07:13;;;;;;;11.35;10.45;;;;;;;5.60;100.00;98408.94;12604238;23;20024;-78
2024/01/02 19:12:10;;;;;;;11.48;10.48;;;;;;;5.66;100.00;98399.47;12607894;23;20647;-75
2024/01/02 19:17:06;;;;;;;10.60;9.70;;;;;;;5.55;100.00;98392.91;12608683;23;20390;-75
2024/01/02 19:22:05;;;;;;;10.98;10.07;;;;;;;5.59;100.00;98379.47;12605975;23;20024;-75
2024/01/02 19:27:03;;;;;;;10.60;9.80;;;;;;;5.64;100.00;98366.47;12607496;23;20025;-77
2024/01/02 19:32:03;;;;;;;10.40;9.48;;;;;;;5.56;100.00;98361.97;12601597;23;20373;-78
2024/01/02 19:36:59;;;;;;;10.23;9.43;;;;;;;5.60;100.00;98349.31;12606488;23;20025;-77
2024/01/02 19:41:56;;;;;;;10.35;9.45;;;;;;;5.61;100.00;98334.59;12606490;23;20339;-76
2024/01/02 19:46:52;;;;;;;10.55;9.73;;;;;;;5.61;100.00;98329.19;12608408;23;20027;-77
2024/01/02 19:51:50;;;;;;;10.43;9.52;;;;;;;5.62;100.00;98303.66;12609919;23;20095;-76
2024/01/02 19:56:50;;;;;;;10.07;9.15;;;;;;;5.65;100.00;98294.84;12609096;23;20029;-77
2024/01/02 20:01:47;;;;;;;10.13;9.32;;;;;;;5.75;100.00;98287.34;12598689;23;20025;-79
2024/01/02 20:07:06;;;;;;;10.40;9.52;;;;;;;5.73;100.00;98278.78;12601711;23;20331;-79
2024/01/02 20:12:39;;;;;;;9.68;8.77;;;;;;;5.80;100.00;98260.00;12607696;23;20032;-80
2024/01/02 20:17:36;;;;;;;9.23;8.43;;;;;;;5.83;100.00;98248.47;12564386;23;20116;-79
2024/01/02 20:22:35;;;;;;;9.43;8.57;;;;;;;5.86;100.00;98236.91;12607048;23;20051;-80
2024/01/02 20:27:52;;;;;;;9.00;8.20;;;;;;;5.90;100.00;98216.13;12610974;23;20071;-79
2024/01/02 20:33:00;;;;;;;8.98;8.27;;;;;;;5.93;100.00;98209.97;12610639;23;20039;-78
2024/01/02 20:38:23;;;;;;;8.93;8.07;;;;;;;5.89;100.00;98190.13;12560612;23;20025;-78
2024/01/02 20:43:35;;;;;;;8.70;7.90;;;;;;;6.03;100.00;98176.16;12510680;23;20071;-78
2024/01/02 20:48:33;;;;;;;7.95;7.25;;;;;;;6.05;100.00;98163.81;12513721;23;20061;-78
2024/01/02 20:53:42;;;;;;;8.15;7.45;;;;;;;6.17;100.00;98154.03;12553487;23;20112;-77
2024/01/02 20:58:44;;;;;;;8.27;7.53;;;;;;;6.20;100.00;98137.06;12504439;23;20040;-78
2024/01/02 21:03:59;;;;;;;11.10;8.00;;;;;;;6.28;100.00;98134.13;12484220;23;20067;-77
2024/01/02 21:09:28;;;;;;;8.30;7.50;;;;;;;6.31;100.00;98111.75;12561013;23;20031;-77
2024/01/02 21:14:31;;;;;;;7.80;7.10;;;;;;;6.33;100.00;98105.94;12552710;23;20043;-78
2024/01/02 21:20:00;;;;;;;7.85;7.18;;;;;;;6.35;100.00;98090.09;12577029;23;20025;-78
2024/01/02 21:25:05;;;;;;;7.18;6.57;;;;;;;6.41;100.00;98077.06;12506260;23;20384;-79
2024/01/02 21:30:07;;;;;;;7.15;6.55;;;;;;;6.48;100.00;98072.56;12581837;23;20051;-77
2024/01/02 21:35:10;;;;;;;7.35;6.70;;;;;;;6.53;100.00;98058.69;12575362;23;20109;-80
2024/01/02 21:40:37;;;;;;;9.80;7.38;;;;;;;6.58;100.00;98054.13;12553685;23;20025;-78
2024/01/02 21:45:41;;;;;;;7.30;6.60;;;;;;;6.63;100.00;98051.13;12491768;23;20049;-79
2024/01/02 21:51:01;;;;;;;7.32;6.63;;;;;;;6.71;100.00;98025.72;12554958;23;20744;-79
2024/01/02 21:56:01;;;;;;;6.90;6.28;;;;;;;6.78;100.00;98035.91;12555054;23;20096;-79
2024/01/02 22:01:20;;;;;;;7.45;6.32;;;;;;;6.87;100.00;98039.19;12578978;23;20029;-78
2024/01/02 22:06:38;;;;;;;5.90;5.40;;;;;;;6.88;100.00;98011.69;12572859;23;20029;-78
2024/01/02 22:11:58;;;;;;;5.00;4.60;;;;;;;6.92;100.00;97998.19;12578091;23;20028;-78
2024/01/02 22:17:01;;;;;;;5.65;5.15;;;;;;;6.95;100.00;98000.94;12554880;23;20092;-78
2024/01/02 22:22:04;;;;;;;5.53;5.03;;;;;;;6.98;100.00;98004.09;12526598;23;20029;-79
2024/01/02 22:27:10;;;;;;;5.82;5.32;;;;;;;6.99;100.00;98003.75;12515461;23;20029;-79
2024/01/02 22:32:08;;;;;;;6.40;5.40;;;;;;;7.03;100.00;98003.78;12552804;23;20037;-78
2024/01/02 22:37:08;;;;;;;6.13;5.53;;;;;;;7.07;100.00;97989.13;12582884;23;20021;-79
2024/01/02 22:42:08;;;;;;;6.35;5.72;;;;;;;7.11;100.00;97983.78;12551165;23;20032;-79
2024/01/02 22:47:08;;;;;;;6.68;6.03;;;;;;;7.12;100.00;97980.69;12554048;23;20028;-79
2024/01/02 22:52:13;;;;;;;6.57;5.88;;;;;;;7.16;100.00;97986.19;12534450;23;20467;-78
2024/01/02 22:57:13;;;;;;;7.93;5.55;;;;;;;7.18;100.00;97989.34;12557756;23;20029;-78
2024/01/02 23:02:11;;;;;;;5.90;5.30;;;;;;;7.22;100.00;97979.31;12548882;23;20029;-77
2024/01/02 23:07:10;;;;;;;5.32;4.80;;;;;;;7.31;100.00;97982.56;12553214;23;20025;-77
2024/01/02 23:12:14;;;;;;;5.93;5.05;;;;;;;7.35;100.00;97977.97;12555212;23;20025;-78
2024/01/02 23:17:34;;;;;;;4.97;4.38;;;;;;;7.43;100.00;97972.66;12578216;23;20032;-79
2024/01/02 23:22:49;;;;;;;6.03;4.43;;;;;;;7.47;100.00;97984.38;12550523;23;20025;-79
2024/01/02 23:27:51;;;;;;;5.97;4.03;;;;;;;7.48;100.00;97969.63;12538515;23;20025;-79
2024/01/02 23:32:50;;;;;;;5.03;4.53;;;;;;;7.37;100.00;97967.50;12554887;23;20072;-79
2024/01/02 23:37:54;;;;;;;5.20;4.70;;;;;;;7.40;100.00;97967.94;12548755;23;20056;-79